Airfield :
LOGIN :

Register | Disclaimer

   EN    FR    IT 

 










Legend :    VFR   Marginal VFR   IFR   Intensive IFR   Very Intensive IFR
Visi :
Ceiling :
>= 8 km
>= 3000ft
5 to 8 km
1000 to 3000 ft
1500m to 5 km
500 to 1000 ft
800 to 1500m
200 to 500 ft
< 800m
< 200 ft
Symbols :   Thunderstorms  Fog  Heavy snow  Heavy precipitations  Wind > 20 kt
SIGMETs :     Misc.  Thunderstorms  Icing  Turbulence  Mountain Waves  Volcanic Ashes







- Airport Elevation : 74 ft
- IATA code : EIN


EHEH - Eindhoven

CURRENT METAR :
  • 190225Z AUTO 29005KT 240V350 9999 SCT054 BKN063 OVC071 05/03 Q1016 BLU

EXPIRED METARs :
  • 190155Z AUTO 29006KT 240V010 9999 BKN026 BKN029 OVC034 05/04 Q1016 BLU
  • 190125Z AUTO 24005KT 9999 FEW042 SCT048 OVC067 05/04 Q1015 BLU
  • 190055Z AUTO 24004KT 9999 FEW008 SCT056 BKN066 05/04 Q1015 BLU
  • 190025Z AUTO 29003KT 240V330 9999 FEW044 BKN056 BKN061 05/04 Q1016 BLU
  • 190010Z AUTO 30005KT 240V350 9999 FEW013 SCT024 BKN035 06/04 Q1016 WHT
  • 182355Z AUTO 30005KT 240V360 9999 FEW027 BKN062 05/04 Q1015 BLU

TAF TAF EHEH
Valid from the 19 at 00:00 until the 20 at 06:00 UTC


182052Z 1900/2006 26006KT 9999 SCT025 BKN050
BECMG 1910/1913 29013KT
TEMPO 1910/1916 20015G25KT FEW018 SCT020CB
BECMG 1917/1920 25008KT
BECMG 1921/1924 BKN020
No reported NOTAMs for that airfield.



MET'MAP, your aeronautical weather chart ! - Copyright ORBIFLY December 2007 - Disclaimer

ORBIFLY MET'MAP TEAM :

Programming & Development : Alexandra Zaïnal
Concept & Development : Baudouin d'Aumeries
Co-Development & Prog : Marc-Olivier Méhu
Technical & hardware support : Manuel Goepfert

Contact : metmap@orbifly.com




SOURCES & CREDITS :

   NOAA